aviador You're here:

KEKX Decoded Metar

ELIZABETH in KY, USA
Report Time2018-05-28 10:15:00
UTC Time2018-05-28 10:12:05
Flight Rules vfr VFR
WindCalm
Visibility9999 m
Phenomena:N/A
Clouds:N/A
CeilingNone
Temp19°C (ISA +5)
Dew Point19°C (100% RH)
QNH1014 hPa
Density Alt1,660 ft
Elevation755 ft
Report Wrong Elevation
Raw Report
KEKX 281015Z AUTO 00000KT 10SM CLR 19/19 A2993 RMK AO2
T01900190=

Extra information for KEKX:More info

Airport Information Weather charts Add Link Nearby Venues Social comments

AIRNAV info for KEKX